A80 TRACON Summary / KATL TAF
ATL TRACON Summary:
Expect VFR conditions under mostly clear skies with FEW030-050 clouds developing in the afternoon. Surface winds will be from the southwest at 4-10kts. No significant flight hazards are expected in the TRACON airspace.

Updated:10/20/2014 11:45 AM
ATL Terminal Aerodrome Forecast:

FTUS80 KATL 201936 AAA
KATL 201933Z 2020/2124 23008KT P6SM FEW050 FEW250
     FM210000 27003KT P6SM SCT100
     FM211400 31008KT P6SM FEW100
     FM211800 31011KT P6SM FEW250
ATL TRACON Area Remark:
NONE.
Convective Gate Forecast / Collaborative Convective Forecast Product / Vertical Wind Profile
Convective Gate Forecast
AIRMETs & SIGMETS/ Southeast Radar loop / Satellite Image (click on image to enlarge)

Southeast Radar Loop

 



USA.gov is the U.S. government's official web portal to all federal, state and local government web resources and services.